sensor_id;sensor_type;location;lat;lon;timestamp;P1;durP1;ratioP1;P2;durP2;ratioP2
79212;SDS011;68639;52.380;9.822;2023-05-10T00:00:31;8.73;;;4.03;;
79212;SDS011;68639;52.380;9.822;2023-05-10T00:02:56;9.50;;;4.05;;
79212;SDS011;68639;52.380;9.822;2023-05-10T00:05:22;7.90;;;3.78;;
79212;SDS011;68639;52.380;9.822;2023-05-10T00:07:47;7.63;;;4.03;;
79212;SDS011;68639;52.380;9.822;2023-05-10T00:10:12;10.43;;;3.80;;
79212;SDS011;68639;52.380;9.822;2023-05-10T00:12:38;12.27;;;3.80;;
79212;SDS011;68639;52.380;9.822;2023-05-10T00:15:03;8.60;;;3.80;;
79212;SDS011;68639;52.380;9.822;2023-05-10T00:17:29;8.15;;;3.92;;
79212;SDS011;68639;52.380;9.822;2023-05-10T00:19:54;11.40;;;3.92;;
79212;SDS011;68639;52.380;9.822;2023-05-10T00:22:19;7.10;;;3.45;;
79212;SDS011;68639;52.380;9.822;2023-05-10T00:24:45;11.82;;;3.95;;
79212;SDS011;68639;52.380;9.822;2023-05-10T00:27:10;6.28;;;3.70;;
79212;SDS011;68639;52.380;9.822;2023-05-10T00:29:35;9.30;;;3.58;;
79212;SDS011;68639;52.380;9.822;2023-05-10T00:32:01;7.57;;;3.97;;
79212;SDS011;68639;52.380;9.822;2023-05-10T00:34:26;12.25;;;4.00;;
79212;SDS011;68639;52.380;9.822;2023-05-10T00:36:52;8.13;;;3.47;;
79212;SDS011;68639;52.380;9.822;2023-05-10T00:39:17;10.80;;;4.15;;
79212;SDS011;68639;52.380;9.822;2023-05-10T00:41:42;8.88;;;3.78;;
79212;SDS011;68639;52.380;9.822;2023-05-10T00:44:07;8.50;;;3.95;;
79212;SDS011;68639;52.380;9.822;2023-05-10T00:46:33;9.60;;;3.90;;
79212;SDS011;68639;52.380;9.822;2023-05-10T00:48:58;10.40;;;3.85;;
79212;SDS011;68639;52.380;9.822;2023-05-10T00:51:23;8.25;;;3.85;;
79212;SDS011;68639;52.380;9.822;2023-05-10T00:53:49;7.85;;;3.80;;
79212;SDS011;68639;52.380;9.822;2023-05-10T00:56:14;7.80;;;4.00;;
79212;SDS011;68639;52.380;9.822;2023-05-10T00:58:40;9.30;;;3.90;;
79212;SDS011;68639;52.380;9.822;2023-05-10T01:01:05;9.63;;;3.78;;
79212;SDS011;68639;52.380;9.822;2023-05-10T01:03:32;6.95;;;3.88;;
79212;SDS011;68639;52.380;9.822;2023-05-10T01:05:57;9.35;;;4.30;;
79212;SDS011;68639;52.380;9.822;2023-05-10T01:08:22;9.60;;;4.40;;
79212;SDS011;68639;52.380;9.822;2023-05-10T01:10:48;6.75;;;3.85;;
79212;SDS011;68639;52.380;9.822;2023-05-10T01:13:16;9.07;;;4.38;;
79212;SDS011;68639;52.380;9.822;2023-05-10T01:15:43;10.48;;;4.10;;
79212;SDS011;68639;52.380;9.822;2023-05-10T01:18:09;11.57;;;4.20;;
79212;SDS011;68639;52.380;9.822;2023-05-10T01:20:36;8.55;;;4.45;;
79212;SDS011;68639;52.380;9.822;2023-05-10T01:23:11;9.55;;;4.78;;
79212;SDS011;68639;52.380;9.822;2023-05-10T01:25:43;13.13;;;4.55;;
79212;SDS011;68639;52.380;9.822;2023-05-10T01:36:26;6.75;;;4.70;;
79212;SDS011;68639;52.380;9.822;2023-05-10T01:41:41;12.30;;;5.70;;
79212;SDS011;68639;52.380;9.822;2023-05-10T01:44:15;12.50;;;5.50;;
79212;SDS011;68639;52.380;9.822;2023-05-10T01:46:42;8.30;;;6.10;;
79212;SDS011;68639;52.380;9.822;2023-05-10T01:49:10;9.50;;;5.70;;
79212;SDS011;68639;52.380;9.822;2023-05-10T01:51:41;9.02;;;5.22;;
79212;SDS011;68639;52.380;9.822;2023-05-10T01:54:09;13.90;;;5.93;;
79212;SDS011;68639;52.380;9.822;2023-05-10T01:56:36;10.80;;;6.07;;
79212;SDS011;68639;52.380;9.822;2023-05-10T01:59:04;12.53;;;6.40;;
79212;SDS011;68639;52.380;9.822;2023-05-10T02:01:30;8.60;;;5.45;;
79212;SDS011;68639;52.380;9.822;2023-05-10T02:03:56;9.52;;;5.80;;
79212;SDS011;68639;52.380;9.822;2023-05-10T02:06:22;11.65;;;5.88;;
79212;SDS011;68639;52.380;9.822;2023-05-10T02:08:49;11.65;;;6.43;;
79212;SDS011;68639;52.380;9.822;2023-05-10T02:11:15;9.40;;;6.03;;
79212;SDS011;68639;52.380;9.822;2023-05-10T02:13:42;9.70;;;6.30;;
79212;SDS011;68639;52.380;9.822;2023-05-10T02:16:08;16.02;;;6.45;;
79212;SDS011;68639;52.380;9.822;2023-05-10T02:18:34;17.80;;;6.93;;
79212;SDS011;68639;52.380;9.822;2023-05-10T02:21:00;12.65;;;6.30;;
79212;SDS011;68639;52.380;9.822;2023-05-10T02:23:26;10.13;;;6.72;;
79212;SDS011;68639;52.380;9.822;2023-05-10T02:25:52;9.10;;;6.40;;
79212;SDS011;68639;52.380;9.822;2023-05-10T02:28:18;12.20;;;6.82;;
79212;SDS011;68639;52.380;9.822;2023-05-10T02:30:44;19.50;;;6.90;;
79212;SDS011;68639;52.380;9.822;2023-05-10T02:33:09;12.83;;;6.07;;
79212;SDS011;68639;52.380;9.822;2023-05-10T02:35:35;11.00;;;6.50;;
79212;SDS011;68639;52.380;9.822;2023-05-10T02:38:03;10.17;;;6.30;;
79212;SDS011;68639;52.380;9.822;2023-05-10T02:40:29;10.40;;;6.80;;
79212;SDS011;68639;52.380;9.822;2023-05-10T02:42:55;15.45;;;6.72;;
79212;SDS011;68639;52.380;9.822;2023-05-10T02:45:22;11.73;;;6.43;;
79212;SDS011;68639;52.380;9.822;2023-05-10T02:47:48;11.17;;;7.10;;
79212;SDS011;68639;52.380;9.822;2023-05-10T02:50:13;13.88;;;6.70;;
79212;SDS011;68639;52.380;9.822;2023-05-10T02:52:39;10.37;;;7.17;;
79212;SDS011;68639;52.380;9.822;2023-05-10T02:55:05;12.07;;;6.70;;
79212;SDS011;68639;52.380;9.822;2023-05-10T02:57:33;12.03;;;6.40;;
79212;SDS011;68639;52.380;9.822;2023-05-10T02:59:58;11.88;;;6.78;;
79212;SDS011;68639;52.380;9.822;2023-05-10T03:02:25;14.43;;;7.20;;
79212;SDS011;68639;52.380;9.822;2023-05-10T03:04:50;13.57;;;6.93;;
79212;SDS011;68639;52.380;9.822;2023-05-10T03:07:16;10.73;;;6.90;;
79212;SDS011;68639;52.380;9.822;2023-05-10T03:09:44;12.30;;;6.80;;
79212;SDS011;68639;52.380;9.822;2023-05-10T03:17:04;12.43;;;7.40;;
79212;SDS011;68639;52.380;9.822;2023-05-10T03:19:36;10.73;;;6.78;;
79212;SDS011;68639;52.380;9.822;2023-05-10T03:22:05;13.03;;;7.40;;
79212;SDS011;68639;52.380;9.822;2023-05-10T03:24:31;13.73;;;7.43;;
79212;SDS011;68639;52.380;9.822;2023-05-10T03:26:58;12.67;;;7.57;;
79212;SDS011;68639;52.380;9.822;2023-05-10T03:29:27;14.57;;;7.83;;
79212;SDS011;68639;52.380;9.822;2023-05-10T03:31:53;15.25;;;7.80;;
79212;SDS011;68639;52.380;9.822;2023-05-10T03:34:23;11.50;;;8.30;;
79212;SDS011;68639;52.380;9.822;2023-05-10T03:36:48;13.93;;;8.57;;
79212;SDS011;68639;52.380;9.822;2023-05-10T03:39:13;14.73;;;9.20;;
79212;SDS011;68639;52.380;9.822;2023-05-10T03:41:39;12.55;;;8.63;;
79212;SDS011;68639;52.380;9.822;2023-05-10T03:44:04;14.00;;;7.85;;
79212;SDS011;68639;52.380;9.822;2023-05-10T03:46:29;13.25;;;8.20;;
79212;SDS011;68639;52.380;9.822;2023-05-10T03:48:54;16.10;;;8.90;;
79212;SDS011;68639;52.380;9.822;2023-05-10T03:51:20;19.73;;;8.47;;
79212;SDS011;68639;52.380;9.822;2023-05-10T03:53:45;15.90;;;8.87;;
79212;SDS011;68639;52.380;9.822;2023-05-10T03:56:11;12.07;;;8.35;;
79212;SDS011;68639;52.380;9.822;2023-05-10T03:58:36;14.10;;;8.68;;
79212;SDS011;68639;52.380;9.822;2023-05-10T04:01:01;17.47;;;9.50;;
79212;SDS011;68639;52.380;9.822;2023-05-10T04:03:27;21.20;;;10.02;;
79212;SDS011;68639;52.380;9.822;2023-05-10T04:06:01;15.45;;;9.32;;
79212;SDS011;68639;52.380;9.822;2023-05-10T04:08:27;17.27;;;9.27;;
79212;SDS011;68639;52.380;9.822;2023-05-10T04:10:52;17.77;;;9.20;;
79212;SDS011;68639;52.380;9.822;2023-05-10T04:13:18;13.88;;;9.43;;
79212;SDS011;68639;52.380;9.822;2023-05-10T04:15:44;11.40;;;9.48;;
79212;SDS011;68639;52.380;9.822;2023-05-10T04:18:09;25.07;;;10.37;;
79212;SDS011;68639;52.380;9.822;2023-05-10T04:20:35;23.23;;;10.25;;
79212;SDS011;68639;52.380;9.822;2023-05-10T04:23:00;11.80;;;8.97;;
79212;SDS011;68639;52.380;9.822;2023-05-10T04:25:25;12.32;;;9.50;;
79212;SDS011;68639;52.380;9.822;2023-05-10T04:27:50;12.20;;;9.47;;
79212;SDS011;68639;52.380;9.822;2023-05-10T04:30:16;13.33;;;9.60;;
79212;SDS011;68639;52.380;9.822;2023-05-10T04:32:41;17.83;;;9.93;;
79212;SDS011;68639;52.380;9.822;2023-05-10T04:35:07;15.27;;;10.80;;
79212;SDS011;68639;52.380;9.822;2023-05-10T04:37:32;16.65;;;10.10;;
79212;SDS011;68639;52.380;9.822;2023-05-10T04:39:57;16.33;;;9.70;;
79212;SDS011;68639;52.380;9.822;2023-05-10T04:42:24;17.55;;;10.55;;
79212;SDS011;68639;52.380;9.822;2023-05-10T04:44:50;15.65;;;11.13;;
79212;SDS011;68639;52.380;9.822;2023-05-10T04:47:16;18.43;;;11.70;;
79212;SDS011;68639;52.380;9.822;2023-05-10T04:49:42;16.43;;;10.67;;
79212;SDS011;68639;52.380;9.822;2023-05-10T04:52:07;16.07;;;11.47;;
79212;SDS011;68639;52.380;9.822;2023-05-10T04:54:32;13.07;;;10.97;;
79212;SDS011;68639;52.380;9.822;2023-05-10T04:56:57;20.05;;;10.68;;
79212;SDS011;68639;52.380;9.822;2023-05-10T04:59:22;19.63;;;11.67;;
79212;SDS011;68639;52.380;9.822;2023-05-10T05:01:48;20.33;;;11.20;;
79212;SDS011;68639;52.380;9.822;2023-05-10T05:04:13;15.43;;;11.13;;
79212;SDS011;68639;52.380;9.822;2023-05-10T05:06:39;17.67;;;11.43;;
79212;SDS011;68639;52.380;9.822;2023-05-10T05:09:04;18.52;;;10.98;;
79212;SDS011;68639;52.380;9.822;2023-05-10T05:11:30;17.80;;;11.77;;
79212;SDS011;68639;52.380;9.822;2023-05-10T05:13:55;15.90;;;11.85;;
79212;SDS011;68639;52.380;9.822;2023-05-10T05:16:20;20.30;;;11.35;;
79212;SDS011;68639;52.380;9.822;2023-05-10T05:18:46;17.67;;;11.57;;
79212;SDS011;68639;52.380;9.822;2023-05-10T05:21:14;19.40;;;11.95;;
79212;SDS011;68639;52.380;9.822;2023-05-10T05:23:40;17.90;;;11.05;;
79212;SDS011;68639;52.380;9.822;2023-05-10T05:26:05;17.53;;;11.50;;
79212;SDS011;68639;52.380;9.822;2023-05-10T05:28:31;18.40;;;11.90;;
79212;SDS011;68639;52.380;9.822;2023-05-10T05:30:58;17.63;;;11.00;;
79212;SDS011;68639;52.380;9.822;2023-05-10T05:33:24;19.67;;;12.17;;
79212;SDS011;68639;52.380;9.822;2023-05-10T05:35:49;19.90;;;11.30;;
79212;SDS011;68639;52.380;9.822;2023-05-10T05:38:15;18.60;;;12.03;;
79212;SDS011;68639;52.380;9.822;2023-05-10T05:40:41;15.98;;;11.27;;
79212;SDS011;68639;52.380;9.822;2023-05-10T05:43:06;19.80;;;12.93;;
79212;SDS011;68639;52.380;9.822;2023-05-10T05:45:31;19.42;;;11.50;;
79212;SDS011;68639;52.380;9.822;2023-05-10T05:47:56;21.35;;;12.70;;
79212;SDS011;68639;52.380;9.822;2023-05-10T05:50:22;18.08;;;11.63;;
79212;SDS011;68639;52.380;9.822;2023-05-10T05:52:47;17.15;;;13.18;;
79212;SDS011;68639;52.380;9.822;2023-05-10T05:55:12;19.13;;;12.23;;
79212;SDS011;68639;52.380;9.822;2023-05-10T05:57:37;16.50;;;10.90;;
79212;SDS011;68639;52.380;9.822;2023-05-10T06:00:03;17.53;;;12.07;;
79212;SDS011;68639;52.380;9.822;2023-05-10T06:02:29;18.55;;;13.50;;
79212;SDS011;68639;52.380;9.822;2023-05-10T06:04:54;18.25;;;12.02;;
79212;SDS011;68639;52.380;9.822;2023-05-10T06:07:19;18.70;;;12.82;;
79212;SDS011;68639;52.380;9.822;2023-05-10T06:09:45;20.10;;;12.20;;
79212;SDS011;68639;52.380;9.822;2023-05-10T06:12:10;17.88;;;11.82;;
79212;SDS011;68639;52.380;9.822;2023-05-10T06:14:36;14.07;;;11.50;;
79212;SDS011;68639;52.380;9.822;2023-05-10T06:17:01;20.02;;;12.82;;
79212;SDS011;68639;52.380;9.822;2023-05-10T06:19:28;15.40;;;11.45;;
79212;SDS011;68639;52.380;9.822;2023-05-10T06:21:54;18.52;;;11.90;;
79212;SDS011;68639;52.380;9.822;2023-05-10T06:24:19;18.50;;;11.43;;
79212;SDS011;68639;52.380;9.822;2023-05-10T06:26:44;15.98;;;12.05;;
79212;SDS011;68639;52.380;9.822;2023-05-10T06:29:10;17.35;;;12.57;;
79212;SDS011;68639;52.380;9.822;2023-05-10T06:31:35;18.60;;;12.43;;
79212;SDS011;68639;52.380;9.822;2023-05-10T06:34:00;17.00;;;13.48;;
79212;SDS011;68639;52.380;9.822;2023-05-10T06:36:25;17.73;;;12.70;;
79212;SDS011;68639;52.380;9.822;2023-05-10T06:38:52;18.92;;;12.23;;
79212;SDS011;68639;52.380;9.822;2023-05-10T06:41:17;15.60;;;11.77;;
79212;SDS011;68639;52.380;9.822;2023-05-10T06:43:42;18.15;;;12.15;;
79212;SDS011;68639;52.380;9.822;2023-05-10T06:46:08;18.50;;;13.07;;
79212;SDS011;68639;52.380;9.822;2023-05-10T06:48:33;16.33;;;12.05;;
79212;SDS011;68639;52.380;9.822;2023-05-10T06:50:59;19.02;;;12.95;;
79212;SDS011;68639;52.380;9.822;2023-05-10T06:53:24;18.60;;;13.15;;
79212;SDS011;68639;52.380;9.822;2023-05-10T06:55:49;18.42;;;13.55;;
79212;SDS011;68639;52.380;9.822;2023-05-10T06:58:14;17.45;;;13.07;;
79212;SDS011;68639;52.380;9.822;2023-05-10T07:00:40;18.30;;;13.73;;
79212;SDS011;68639;52.380;9.822;2023-05-10T07:03:07;22.08;;;14.13;;
79212;SDS011;68639;52.380;9.822;2023-05-10T07:05:32;15.07;;;11.57;;
79212;SDS011;68639;52.380;9.822;2023-05-10T07:07:58;20.02;;;12.88;;
79212;SDS011;68639;52.380;9.822;2023-05-10T07:10:23;20.10;;;11.77;;
79212;SDS011;68639;52.380;9.822;2023-05-10T07:12:48;17.38;;;12.40;;
79212;SDS011;68639;52.380;9.822;2023-05-10T07:15:14;18.48;;;11.30;;
79212;SDS011;68639;52.380;9.822;2023-05-10T07:17:40;16.92;;;11.57;;
79212;SDS011;68639;52.380;9.822;2023-05-10T07:20:06;12.98;;;10.75;;
79212;SDS011;68639;52.380;9.822;2023-05-10T07:22:31;16.52;;;11.93;;
79212;SDS011;68639;52.380;9.822;2023-05-10T07:24:57;15.13;;;10.80;;
79212;SDS011;68639;52.380;9.822;2023-05-10T07:27:22;14.82;;;10.60;;
79212;SDS011;68639;52.380;9.822;2023-05-10T07:29:47;13.82;;;10.25;;
79212;SDS011;68639;52.380;9.822;2023-05-10T07:32:12;16.63;;;11.45;;
79212;SDS011;68639;52.380;9.822;2023-05-10T07:34:37;17.33;;;11.00;;
79212;SDS011;68639;52.380;9.822;2023-05-10T07:37:03;13.90;;;10.68;;
79212;SDS011;68639;52.380;9.822;2023-05-10T07:39:28;13.05;;;10.88;;
79212;SDS011;68639;52.380;9.822;2023-05-10T07:41:54;13.18;;;9.40;;
79212;SDS011;68639;52.380;9.822;2023-05-10T07:44:19;14.90;;;9.82;;
79212;SDS011;68639;52.380;9.822;2023-05-10T07:46:45;15.23;;;10.00;;
79212;SDS011;68639;52.380;9.822;2023-05-10T07:49:10;16.88;;;10.57;;
79212;SDS011;68639;52.380;9.822;2023-05-10T07:51:35;18.50;;;11.15;;
79212;SDS011;68639;52.380;9.822;2023-05-10T07:54:01;19.15;;;11.18;;
79212;SDS011;68639;52.380;9.822;2023-05-10T07:56:28;15.43;;;10.52;;
79212;SDS011;68639;52.380;9.822;2023-05-10T07:58:56;18.27;;;10.98;;
79212;SDS011;68639;52.380;9.822;2023-05-10T08:01:22;13.02;;;10.68;;
79212;SDS011;68639;52.380;9.822;2023-05-10T08:03:48;19.33;;;11.05;;
79212;SDS011;68639;52.380;9.822;2023-05-10T08:06:14;17.02;;;10.82;;
79212;SDS011;68639;52.380;9.822;2023-05-10T08:08:40;21.35;;;11.82;;
79212;SDS011;68639;52.380;9.822;2023-05-10T08:11:05;14.93;;;10.50;;
79212;SDS011;68639;52.380;9.822;2023-05-10T08:13:31;13.30;;;9.52;;
79212;SDS011;68639;52.380;9.822;2023-05-10T08:15:56;15.68;;;10.25;;
79212;SDS011;68639;52.380;9.822;2023-05-10T08:18:21;13.65;;;9.43;;
79212;SDS011;68639;52.380;9.822;2023-05-10T08:20:46;12.07;;;8.75;;
79212;SDS011;68639;52.380;9.822;2023-05-10T08:23:12;13.27;;;7.78;;
79212;SDS011;68639;52.380;9.822;2023-05-10T08:25:38;15.32;;;9.48;;
79212;SDS011;68639;52.380;9.822;2023-05-10T08:28:03;10.88;;;8.00;;
79212;SDS011;68639;52.380;9.822;2023-05-10T08:30:28;12.32;;;6.40;;
79212;SDS011;68639;52.380;9.822;2023-05-10T08:32:53;7.13;;;5.70;;
79212;SDS011;68639;52.380;9.822;2023-05-10T08:35:18;8.68;;;5.90;;
79212;SDS011;68639;52.380;9.822;2023-05-10T08:37:44;6.75;;;4.45;;
79212;SDS011;68639;52.380;9.822;2023-05-10T08:40:10;7.38;;;4.03;;
79212;SDS011;68639;52.380;9.822;2023-05-10T08:42:36;9.60;;;4.30;;
79212;SDS011;68639;52.380;9.822;2023-05-10T08:45:05;7.75;;;3.47;;
79212;SDS011;68639;52.380;9.822;2023-05-10T08:47:32;6.88;;;2.45;;
79212;SDS011;68639;52.380;9.822;2023-05-10T08:49:57;4.35;;;2.33;;
79212;SDS011;68639;52.380;9.822;2023-05-10T08:52:24;6.22;;;2.10;;
79212;SDS011;68639;52.380;9.822;2023-05-10T08:54:51;2.25;;;1.80;;
79212;SDS011;68639;52.380;9.822;2023-05-10T08:57:16;3.42;;;2.28;;
79212;SDS011;68639;52.380;9.822;2023-05-10T08:59:42;3.17;;;2.15;;
79212;SDS011;68639;52.380;9.822;2023-05-10T09:02:07;3.15;;;2.28;;
79212;SDS011;68639;52.380;9.822;2023-05-10T09:04:35;4.90;;;2.67;;
79212;SDS011;68639;52.380;9.822;2023-05-10T09:07:00;3.55;;;2.60;;
79212;SDS011;68639;52.380;9.822;2023-05-10T09:09:26;4.38;;;3.25;;
79212;SDS011;68639;52.380;9.822;2023-05-10T09:11:52;7.10;;;2.33;;
79212;SDS011;68639;52.380;9.822;2023-05-10T09:14:18;3.70;;;2.58;;
79212;SDS011;68639;52.380;9.822;2023-05-10T09:16:43;5.05;;;2.97;;
79212;SDS011;68639;52.380;9.822;2023-05-10T09:19:09;6.32;;;3.38;;
79212;SDS011;68639;52.380;9.822;2023-05-10T09:21:37;5.35;;;4.03;;
79212;SDS011;68639;52.380;9.822;2023-05-10T09:24:06;5.50;;;3.50;;
79212;SDS011;68639;52.380;9.822;2023-05-10T09:26:31;6.03;;;3.63;;
79212;SDS011;68639;52.380;9.822;2023-05-10T09:28:57;6.15;;;3.38;;
79212;SDS011;68639;52.380;9.822;2023-05-10T09:31:23;4.80;;;3.30;;
79212;SDS011;68639;52.380;9.822;2023-05-10T09:33:50;5.20;;;3.60;;
79212;SDS011;68639;52.380;9.822;2023-05-10T09:36:15;4.18;;;3.35;;
79212;SDS011;68639;52.380;9.822;2023-05-10T09:41:20;4.80;;;3.45;;
79212;SDS011;68639;52.380;9.822;2023-05-10T09:43:45;7.00;;;4.68;;
79212;SDS011;68639;52.380;9.822;2023-05-10T09:46:11;6.55;;;4.20;;
79212;SDS011;68639;52.380;9.822;2023-05-10T09:48:43;7.05;;;3.67;;
79212;SDS011;68639;52.380;9.822;2023-05-10T09:51:08;6.25;;;3.67;;
79212;SDS011;68639;52.380;9.822;2023-05-10T09:53:34;5.72;;;3.95;;
79212;SDS011;68639;52.380;9.822;2023-05-10T09:55:59;4.65;;;3.63;;
79212;SDS011;68639;52.380;9.822;2023-05-10T09:58:24;5.78;;;3.40;;
79212;SDS011;68639;52.380;9.822;2023-05-10T10:00:50;5.90;;;3.90;;
79212;SDS011;68639;52.380;9.822;2023-05-10T10:03:20;4.35;;;3.60;;
79212;SDS011;68639;52.380;9.822;2023-05-10T10:05:46;7.65;;;3.80;;
79212;SDS011;68639;52.380;9.822;2023-05-10T10:08:12;5.43;;;4.15;;
79212;SDS011;68639;52.380;9.822;2023-05-10T10:10:37;4.88;;;3.65;;
79212;SDS011;68639;52.380;9.822;2023-05-10T10:13:05;5.45;;;3.60;;
79212;SDS011;68639;52.380;9.822;2023-05-10T10:15:30;4.78;;;3.47;;
79212;SDS011;68639;52.380;9.822;2023-05-10T10:17:55;5.60;;;3.00;;
79212;SDS011;68639;52.380;9.822;2023-05-10T10:20:21;4.00;;;3.10;;
79212;SDS011;68639;52.380;9.822;2023-05-10T10:22:47;5.00;;;3.10;;
79212;SDS011;68639;52.380;9.822;2023-05-10T10:25:14;5.03;;;3.00;;
79212;SDS011;68639;52.380;9.822;2023-05-10T10:35:15;5.78;;;3.70;;
79212;SDS011;68639;52.380;9.822;2023-05-10T10:37:42;5.53;;;3.55;;
79212;SDS011;68639;52.380;9.822;2023-05-10T10:40:26;5.43;;;3.40;;
79212;SDS011;68639;52.380;9.822;2023-05-10T10:42:52;9.13;;;3.67;;
79212;SDS011;68639;52.380;9.822;2023-05-10T10:45:18;5.78;;;3.58;;
79212;SDS011;68639;52.380;9.822;2023-05-10T10:47:44;5.55;;;3.28;;
79212;SDS011;68639;52.380;9.822;2023-05-10T10:50:10;6.07;;;3.40;;
79212;SDS011;68639;52.380;9.822;2023-05-10T10:52:38;6.85;;;3.15;;
79212;SDS011;68639;52.380;9.822;2023-05-10T10:55:05;5.80;;;3.20;;
79212;SDS011;68639;52.380;9.822;2023-05-10T10:57:32;5.13;;;3.20;;
79212;SDS011;68639;52.380;9.822;2023-05-10T11:02:44;6.28;;;3.20;;
79212;SDS011;68639;52.380;9.822;2023-05-10T11:07:54;7.22;;;3.38;;
79212;SDS011;68639;52.380;9.822;2023-05-10T11:10:22;6.60;;;3.45;;
79212;SDS011;68639;52.380;9.822;2023-05-10T11:13:00;6.35;;;2.67;;
79212;SDS011;68639;52.380;9.822;2023-05-10T11:15:33;5.20;;;2.88;;
79212;SDS011;68639;52.380;9.822;2023-05-10T11:17:59;4.80;;;2.97;;
79212;SDS011;68639;52.380;9.822;2023-05-10T11:20:28;6.28;;;2.88;;
79212;SDS011;68639;52.380;9.822;2023-05-10T11:22:58;4.72;;;2.83;;
79212;SDS011;68639;52.380;9.822;2023-05-10T11:25:35;5.68;;;2.83;;
79212;SDS011;68639;52.380;9.822;2023-05-10T11:28:05;5.90;;;2.58;;
79212;SDS011;68639;52.380;9.822;2023-05-10T11:30:31;7.60;;;2.88;;
79212;SDS011;68639;52.380;9.822;2023-05-10T11:32:56;5.82;;;3.03;;
79212;SDS011;68639;52.380;9.822;2023-05-10T11:35:21;6.40;;;2.95;;
79212;SDS011;68639;52.380;9.822;2023-05-10T11:37:47;6.18;;;3.28;;
79212;SDS011;68639;52.380;9.822;2023-05-10T11:40:13;6.25;;;2.90;;
79212;SDS011;68639;52.380;9.822;2023-05-10T11:42:38;6.10;;;2.90;;
79212;SDS011;68639;52.380;9.822;2023-05-10T11:45:03;11.25;;;4.30;;
79212;SDS011;68639;52.380;9.822;2023-05-10T11:47:29;5.70;;;2.70;;
79212;SDS011;68639;52.380;9.822;2023-05-10T11:49:54;5.47;;;2.70;;
79212;SDS011;68639;52.380;9.822;2023-05-10T11:52:19;6.13;;;2.83;;
79212;SDS011;68639;52.380;9.822;2023-05-10T11:54:54;4.82;;;2.20;;
79212;SDS011;68639;52.380;9.822;2023-05-10T11:57:19;6.50;;;3.55;;
79212;SDS011;68639;52.380;9.822;2023-05-10T11:59:46;7.18;;;3.42;;
79212;SDS011;68639;52.380;9.822;2023-05-10T12:02:11;6.60;;;3.15;;
79212;SDS011;68639;52.380;9.822;2023-05-10T12:04:37;7.60;;;3.58;;
79212;SDS011;68639;52.380;9.822;2023-05-10T12:07:02;6.32;;;3.03;;
79212;SDS011;68639;52.380;9.822;2023-05-10T12:09:27;6.55;;;3.45;;
79212;SDS011;68639;52.380;9.822;2023-05-10T12:11:55;7.13;;;3.85;;
79212;SDS011;68639;52.380;9.822;2023-05-10T12:14:21;8.00;;;3.85;;
79212;SDS011;68639;52.380;9.822;2023-05-10T12:16:47;6.88;;;4.00;;
79212;SDS011;68639;52.380;9.822;2023-05-10T12:19:12;7.53;;;3.70;;
79212;SDS011;68639;52.380;9.822;2023-05-10T12:21:43;4.95;;;3.33;;
79212;SDS011;68639;52.380;9.822;2023-05-10T12:24:08;5.70;;;3.67;;
79212;SDS011;68639;52.380;9.822;2023-05-10T12:26:35;7.68;;;3.30;;
79212;SDS011;68639;52.380;9.822;2023-05-10T12:31:57;5.88;;;3.22;;
79212;SDS011;68639;52.380;9.822;2023-05-10T12:34:33;6.38;;;3.15;;
79212;SDS011;68639;52.380;9.822;2023-05-10T12:36:58;6.53;;;3.20;;
79212;SDS011;68639;52.380;9.822;2023-05-10T12:39:24;8.90;;;3.35;;
79212;SDS011;68639;52.380;9.822;2023-05-10T12:41:50;6.63;;;3.40;;
79212;SDS011;68639;52.380;9.822;2023-05-10T12:44:15;8.02;;;3.58;;
79212;SDS011;68639;52.380;9.822;2023-05-10T12:46:40;5.88;;;3.10;;
79212;SDS011;68639;52.380;9.822;2023-05-10T12:49:05;6.28;;;2.97;;
79212;SDS011;68639;52.380;9.822;2023-05-10T12:51:31;5.22;;;3.17;;
79212;SDS011;68639;52.380;9.822;2023-05-10T12:53:56;9.85;;;3.83;;
79212;SDS011;68639;52.380;9.822;2023-05-10T12:56:21;5.28;;;3.33;;
79212;SDS011;68639;52.380;9.822;2023-05-10T12:58:47;7.65;;;3.95;;
79212;SDS011;68639;52.380;9.822;2023-05-10T13:01:13;6.88;;;3.60;;
79212;SDS011;68639;52.380;9.822;2023-05-10T13:03:38;5.93;;;3.40;;
79212;SDS011;68639;52.380;9.822;2023-05-10T13:06:03;5.97;;;3.50;;
79212;SDS011;68639;52.380;9.822;2023-05-10T13:08:29;6.28;;;3.80;;
79212;SDS011;68639;52.380;9.822;2023-05-10T13:10:58;5.75;;;3.30;;
79212;SDS011;68639;52.380;9.822;2023-05-10T13:13:23;7.65;;;3.22;;
79212;SDS011;68639;52.380;9.822;2023-05-10T13:15:48;6.03;;;3.50;;
79212;SDS011;68639;52.380;9.822;2023-05-10T13:18:13;6.70;;;3.97;;
79212;SDS011;68639;52.380;9.822;2023-05-10T13:20:39;7.88;;;3.55;;
79212;SDS011;68639;52.380;9.822;2023-05-10T13:23:04;5.65;;;3.45;;
79212;SDS011;68639;52.380;9.822;2023-05-10T13:25:30;9.60;;;3.53;;
79212;SDS011;68639;52.380;9.822;2023-05-10T13:27:55;6.20;;;2.97;;
79212;SDS011;68639;52.380;9.822;2023-05-10T13:30:20;4.95;;;3.15;;
79212;SDS011;68639;52.380;9.822;2023-05-10T13:32:46;5.50;;;2.78;;
79212;SDS011;68639;52.380;9.822;2023-05-10T13:35:11;5.85;;;3.00;;
79212;SDS011;68639;52.380;9.822;2023-05-10T13:37:36;7.25;;;2.80;;
79212;SDS011;68639;52.380;9.822;2023-05-10T13:40:02;5.00;;;2.70;;
79212;SDS011;68639;52.380;9.822;2023-05-10T13:42:28;6.30;;;2.72;;
79212;SDS011;68639;52.380;9.822;2023-05-10T13:44:54;5.65;;;2.55;;
79212;SDS011;68639;52.380;9.822;2023-05-10T13:47:19;6.30;;;2.80;;
79212;SDS011;68639;52.380;9.822;2023-05-10T13:49:46;8.77;;;2.90;;
79212;SDS011;68639;52.380;9.822;2023-05-10T13:52:12;4.35;;;2.75;;
79212;SDS011;68639;52.380;9.822;2023-05-10T13:54:37;6.57;;;2.85;;
79212;SDS011;68639;52.380;9.822;2023-05-10T13:57:03;6.22;;;3.00;;
79212;SDS011;68639;52.380;9.822;2023-05-10T13:59:28;5.53;;;2.95;;
79212;SDS011;68639;52.380;9.822;2023-05-10T14:01:54;6.05;;;3.35;;
79212;SDS011;68639;52.380;9.822;2023-05-10T14:04:19;7.15;;;3.17;;
79212;SDS011;68639;52.380;9.822;2023-05-10T14:06:44;6.18;;;3.00;;
79212;SDS011;68639;52.380;9.822;2023-05-10T14:09:09;4.68;;;3.00;;
79212;SDS011;68639;52.380;9.822;2023-05-10T14:11:35;4.70;;;2.83;;
79212;SDS011;68639;52.380;9.822;2023-05-10T14:14:00;6.93;;;3.72;;
79212;SDS011;68639;52.380;9.822;2023-05-10T14:16:25;6.75;;;3.50;;
79212;SDS011;68639;52.380;9.822;2023-05-10T14:18:51;9.75;;;5.80;;
79212;SDS011;68639;52.380;9.822;2023-05-10T14:21:17;14.18;;;6.53;;
79212;SDS011;68639;52.380;9.822;2023-05-10T14:23:42;14.68;;;6.65;;
79212;SDS011;68639;52.380;9.822;2023-05-10T14:26:07;11.15;;;7.18;;
79212;SDS011;68639;52.380;9.822;2023-05-10T14:28:33;11.23;;;7.28;;
79212;SDS011;68639;52.380;9.822;2023-05-10T14:30:58;10.32;;;7.38;;
79212;SDS011;68639;52.380;9.822;2023-05-10T14:33:24;11.32;;;7.07;;
79212;SDS011;68639;52.380;9.822;2023-05-10T14:35:49;12.52;;;7.68;;
79212;SDS011;68639;52.380;9.822;2023-05-10T14:38:15;13.18;;;7.82;;
79212;SDS011;68639;52.380;9.822;2023-05-10T14:40:40;12.30;;;8.00;;
79212;SDS011;68639;52.380;9.822;2023-05-10T14:43:05;17.48;;;8.57;;
79212;SDS011;68639;52.380;9.822;2023-05-10T14:45:31;12.98;;;8.35;;
79212;SDS011;68639;52.380;9.822;2023-05-10T14:47:56;14.60;;;8.70;;
79212;SDS011;68639;52.380;9.822;2023-05-10T14:50:22;15.18;;;9.70;;
79212;SDS011;68639;52.380;9.822;2023-05-10T14:52:47;15.05;;;9.85;;
79212;SDS011;68639;52.380;9.822;2023-05-10T14:55:12;17.60;;;10.70;;
79212;SDS011;68639;52.380;9.822;2023-05-10T14:57:38;16.92;;;10.50;;
79212;SDS011;68639;52.380;9.822;2023-05-10T15:00:03;21.30;;;11.10;;
79212;SDS011;68639;52.380;9.822;2023-05-10T15:02:29;18.33;;;11.35;;
79212;SDS011;68639;52.380;9.822;2023-05-10T15:04:54;16.10;;;10.93;;